Time;durP1;ratioP1;P1;durP2;ratioP2;P2;SDS_P1;SDS_P2;PMS_P1;PMS_P2;Temp;Humidity;BMP_temperature;BMP_pressure;BME280_temperature;BME280_humidity;BME280_pressure;Samples;Min_cycle;Max_cycle;Signal;HPM_P1;HPM_P2
2022/08/05 00:00:19;;;;;;;4.82;1.45;;;;;;;14.84;57.37;101611.31;7397716;19;20015;-49
2022/08/05 00:02:48;;;;;;;5.25;1.23;;;;;;;14.71;57.88;101609.72;7394087;19;20019;-51
2022/08/05 00:05:22;;;;;;;3.75;1.40;;;;;;;14.69;58.23;101609.28;7392286;19;20375;-55
2022/08/05 00:08:09;;;;;;;6.40;2.50;;;;;;;14.68;58.02;101606.81;7373022;19;20460;-51
2022/08/05 00:11:53;;;;;;;6.60;1.80;;;;;;;14.56;58.41;101616.03;7385837;19;20018;-50
2022/08/05 00:14:46;;;;;;;7.10;1.10;;;;;;;14.57;58.04;101612.06;7397410;19;20007;-50
2022/08/05 00:17:28;;;;;;;;;;;;;;;14.55;59.21;101617.19;7404831;19;20015;-52
2022/08/05 00:19:56;;;;;;;6.28;1.40;;;;;;;14.50;58.01;101617.44;7396822;19;20306;-53
2022/08/05 00:22:49;;;;;;;3.17;1.05;;;;;;;14.45;58.59;101621.28;7396052;19;20021;-52
2022/08/05 00:25:46;;;;;;;5.15;1.20;;;;;;;14.42;59.57;101618.38;7402435;19;20019;-50
2022/08/05 00:28:21;;;;;;;5.28;1.35;;;;;;;14.38;58.64;101623.00;7399729;19;20025;-50
2022/08/05 00:30:58;;;;;;;4.07;1.05;;;;;;;14.29;59.18;101627.88;7398428;19;20356;-51
2022/08/05 00:33:32;;;;;;;5.15;1.90;;;;;;;14.29;59.63;101625.09;7398324;19;20015;-51
2022/08/05 00:40:11;;;;;;;6.18;1.45;;;;;;;14.16;59.87;101623.47;7399004;19;20337;-49
2022/08/05 00:43:01;;;;;;;2.85;1.30;;;;;;;14.09;59.95;101628.78;7402168;19;20010;-51
2022/08/05 00:56:30;;;;;;;3.42;1.10;;;;;;;13.85;60.46;101618.44;7396413;19;20025;-51
2022/08/05 01:03:24;;;;;;;4.68;2.03;;;;;;;13.74;60.72;101617.28;7401207;19;20354;-48
2022/08/05 01:09:24;;;;;;;5.00;1.40;;;;;;;13.60;61.37;101623.16;7400598;19;20010;-47
2022/08/05 01:20:46;;;;;;;4.18;1.10;;;;;;;13.36;62.89;101634.22;7398746;19;20010;-49
2022/08/05 01:30:16;;;;;;;3.65;1.48;;;;;;;13.28;62.31;101613.69;7396878;19;20002;-49
2022/08/05 01:33:24;;;;;;;4.40;1.05;;;;;;;13.29;63.05;101626.41;7397874;19;20018;-49
2022/08/05 01:35:56;;;;;;;3.50;1.05;;;;;;;13.31;62.90;101631.66;7397207;19;20022;-47
2022/08/05 01:45:41;;;;;;;4.70;1.58;;;;;;;13.09;63.21;101629.22;7391024;19;20011;-48
2022/08/05 01:51:47;;;;;;;6.30;1.20;;;;;;;13.08;63.29;101630.41;7398342;19;20006;-55
2022/08/05 01:57:44;;;;;;;5.70;1.33;;;;;;;12.99;63.48;101640.75;7395193;19;20018;-50
2022/08/05 02:04:33;;;;;;;3.65;1.10;;;;;;;12.91;63.92;101631.31;7400270;19;20018;-50
2022/08/05 02:07:02;;;;;;;4.85;1.35;;;;;;;12.88;64.02;101639.50;7397034;19;20607;-47
2022/08/05 02:09:32;;;;;;;9.52;1.40;;;;;;;12.85;64.04;101635.44;7399013;19;20110;-47
2022/08/05 02:26:06;;;;;;;4.82;1.52;;;;;;;12.72;64.19;101637.34;7389672;19;20490;-56
2022/08/05 02:29:11;;;;;;;5.38;1.35;;;;;;;12.66;65.20;101637.88;7382172;19;20010;-49
2022/08/05 02:38:45;;;;;;;3.10;1.38;;;;;;;12.47;64.74;101634.75;7397787;19;20003;-49
2022/08/05 02:41:22;;;;;;;4.07;1.38;;;;;;;12.48;64.88;101631.63;7396150;19;20033;-50
2022/08/05 02:43:57;;;;;;;2.58;1.10;;;;;;;12.48;64.89;101637.19;7399734;19;20011;-49
2022/08/05 02:50:05;;;;;;;2.85;1.42;;;;;;;12.31;65.13;101630.94;7396898;19;20014;-49
2022/08/05 02:52:53;;;;;;;7.25;1.30;;;;;;;12.26;66.35;101634.69;7391966;19;20014;-49
2022/08/05 02:55:23;;;;;;;5.28;1.25;;;;;;;12.23;65.64;101629.84;7397293;19;20013;-48
2022/08/05 03:01:59;;;;;;;6.00;1.67;;;;;;;12.21;65.71;101632.94;7395547;19;20018;-48
2022/08/05 03:11:43;;;;;;;8.15;3.28;;;;;;;12.21;65.49;101632.09;7396369;19;20019;-49
2022/08/05 03:14:23;;;;;;;6.07;0.93;;;;;;;12.17;65.71;101631.16;7398486;19;20022;-47
2022/08/05 03:16:52;;;;;;;5.13;1.55;;;;;;;12.13;65.68;101635.75;7397208;19;20003;-47
2022/08/05 03:19:20;;;;;;;4.75;1.40;;;;;;;12.07;66.05;101626.00;7397685;19;20007;-48
2022/08/05 03:22:02;;;;;;;9.70;1.75;;;;;;;12.05;66.42;101628.25;7396227;19;20010;-47
2022/08/05 03:24:53;;;;;;;5.20;1.55;;;;;;;12.03;66.58;101634.16;7397050;19;20018;-47
2022/08/05 03:27:28;;;;;;;3.25;0.90;;;;;;;12.06;66.26;101644.59;7397447;19;20414;-48
2022/08/05 03:30:15;;;;;;;5.22;1.10;;;;;;;12.05;66.28;101633.81;7392707;19;20066;-49
2022/08/05 03:43:01;;;;;;;9.75;1.40;;;;;;;11.97;66.62;101634.66;7394666;19;20015;-47
2022/08/05 03:47:00;;;;;;;5.78;1.17;;;;;;;11.90;67.26;101634.38;7392456;19;20011;-48
2022/08/05 03:49:55;;;;;;;3.35;1.38;;;;;;;11.86;67.18;101637.00;7392652;19;20473;-48
2022/08/05 03:52:32;;;;;;;7.85;1.40;;;;;;;11.85;67.29;101637.34;7398125;19;20015;-48
2022/08/05 03:59:00;;;;;;;5.50;1.63;;;;;;;11.76;67.44;101633.78;7392626;19;20014;-47
2022/08/05 04:01:30;;;;;;;3.55;1.10;;;;;;;11.76;67.65;101634.59;7390801;19;20045;-48
2022/08/05 04:04:00;;;;;;;8.85;1.40;;;;;;;11.78;67.83;101634.28;7397339;19;20007;-48
2022/08/05 04:07:06;;;;;;;7.80;1.42;;;;;;;11.70;69.00;101626.78;7392668;19;20017;-47
2022/08/05 04:09:34;;;;;;;6.97;1.90;;;;;;;11.73;68.08;101632.47;7394349;19;20015;-49
2022/08/05 04:12:23;;;;;;;7.85;2.15;;;;;;;11.71;67.85;101628.41;7390866;19;20502;-49
2022/08/05 04:15:13;;;;;;;5.43;1.25;;;;;;;11.67;68.83;101621.88;7396731;19;20768;-47
2022/08/05 04:17:42;;;;;;;3.90;1.10;;;;;;;11.71;68.23;101614.53;7395411;19;20015;-49
2022/08/05 04:27:27;;;;;;;9.15;1.23;;;;;;;11.61;68.60;101629.56;7394219;19;20398;-51
2022/08/05 04:30:10;;;;;;;9.43;1.40;;;;;;;11.61;68.61;101624.81;7391886;19;20022;-47
2022/08/05 04:32:37;;;;;;;5.72;1.08;;;;;;;11.65;68.53;101624.16;7393678;19;20022;-49
2022/08/05 04:35:14;;;;;;;4.53;1.45;;;;;;;11.63;69.51;101633.63;7391528;19;20539;-47
2022/08/05 04:41:57;;;;;;;4.30;1.10;;;;;;;11.60;68.83;101622.38;7396671;19;20022;-47
2022/08/05 04:48:09;;;;;;;5.53;1.38;;;;;;;11.50;70.51;101634.63;7384964;19;20472;-52
2022/08/05 04:50:54;;;;;;;7.53;1.10;;;;;;;11.54;69.41;101640.34;7385353;19;20014;-48
2022/08/05 04:53:38;;;;;;;4.93;1.70;;;;;;;11.54;69.57;101641.13;7387836;19;20033;-47
2022/08/05 04:56:07;;;;;;;3.90;1.90;;;;;;;11.59;69.59;101641.00;7387405;19;20022;-51
2022/08/05 04:58:55;;;;;;;6.80;1.27;;;;;;;11.59;69.85;101643.75;7402645;19;20019;-49
2022/08/05 05:01:22;;;;;;;3.35;1.20;;;;;;;11.63;69.69;101638.34;7398429;19;20022;-48
2022/08/05 05:04:31;;;;;;;2.60;0.85;;;;;;;11.66;69.92;101651.56;7401792;19;20038;-47
2022/08/05 05:07:08;;;;;;;11.68;2.17;;;;;;;11.83;71.81;101650.75;7399573;19;24737;-49
2022/08/05 05:10:14;;;;;;;5.13;1.55;;;;;;;12.03;71.94;101652.78;7398881;19;24428;-48
2022/08/05 05:13:01;;;;;;;5.90;1.30;;;;;;;12.15;71.31;101633.47;7399273;19;24401;-49
2022/08/05 05:19:00;;;;;;;3.55;1.33;;;;;;;12.23;71.49;101656.78;7399102;19;24996;-48
2022/08/05 05:25:23;;;;;;;6.18;1.40;;;;;;;12.33;71.20;101653.63;7397512;19;24385;-48
2022/08/05 05:31:48;;;;;;;4.95;1.80;;;;;;;12.33;71.69;101657.22;7391834;19;24413;-48
2022/08/05 05:34:22;;;;;;;6.85;1.58;;;;;;;12.37;71.34;101660.13;7398694;19;24409;-48
2022/08/05 05:36:53;;;;;;;7.47;2.05;;;;;;;12.37;71.51;101660.94;7396334;19;24720;-48
2022/08/05 05:39:41;;;;;;;4.95;1.48;;;;;;;12.43;71.51;101664.34;7398998;19;24386;-48
2022/08/05 05:42:11;;;;;;;6.82;1.65;;;;;;;12.44;71.37;101675.13;7401247;19;24390;-49
2022/08/05 05:44:50;;;;;;;5.95;1.45;;;;;;;12.46;71.22;101672.81;7399203;19;24377;-52
2022/08/05 05:47:46;;;;;;;9.88;1.40;;;;;;;12.46;71.31;101672.00;7399486;19;24402;-51
2022/08/05 06:02:18;;;;;;;5.65;1.58;;;;;;;12.43;71.89;101678.22;7394514;19;24414;-49
2022/08/05 06:05:23;;;;;;;3.55;1.42;;;;;;;12.43;72.04;101679.03;7393470;19;24808;-47
2022/08/05 06:07:52;;;;;;;4.68;1.52;;;;;;;12.45;72.56;101681.47;7397188;19;24410;-47
2022/08/05 06:14:12;;;;;;;6.50;1.75;;;;;;;12.56;72.43;101696.59;7395750;19;24385;-50
2022/08/05 06:23:14;;;;;;;5.78;1.63;;;;;;;12.79;72.02;101704.31;7397540;19;24810;-47
2022/08/05 06:32:28;;;;;;;8.32;1.67;;;;;;;12.90;71.60;101715.03;7396831;19;24401;-48
2022/08/05 06:35:08;;;;;;;6.55;1.90;;;;;;;12.90;71.83;101712.25;7395737;19;24409;-56
2022/08/05 06:37:48;;;;;;;5.93;1.40;;;;;;;12.98;71.87;101716.94;7394490;19;24385;-47
2022/08/05 06:44:00;;;;;;;8.48;2.13;;;;;;;13.30;70.85;101722.63;7394668;19;24413;-48
2022/08/05 06:46:28;;;;;;;9.68;1.70;;;;;;;13.38;70.30;101726.47;7388306;19;24729;-47
2022/08/05 06:49:38;;;;;;;6.63;1.73;;;;;;;13.44;70.32;101725.13;7398012;19;24489;-48
2022/08/05 06:53:32;;;;;;;6.05;1.42;;;;;;;13.54;69.75;101735.81;7393280;19;24745;-49
2022/08/05 06:56:05;;;;;;;7.32;1.17;;;;;;;13.61;69.61;101747.22;7391590;19;24444;-49
2022/08/05 06:58:52;;;;;;;7.50;1.90;;;;;;;13.69;69.67;101749.09;7392116;19;24421;-47
2022/08/05 07:01:30;;;;;;;7.88;1.80;;;;;;;13.75;68.86;101756.09;7390423;19;25026;-48
2022/08/05 07:04:00;;;;;;;6.28;1.60;;;;;;;13.75;68.95;101753.31;7391345;19;24427;-53
2022/08/05 07:06:28;;;;;;;5.28;1.38;;;;;;;13.83;69.28;101749.63;7387533;19;24417;-53
2022/08/05 07:09:03;;;;;;;6.93;1.90;;;;;;;14.02;68.97;101751.88;7380497;19;24428;-51
2022/08/05 07:11:32;;;;;;;7.75;1.38;;;;;;;14.16;68.08;101751.56;7378436;19;24413;-49
2022/08/05 07:17:00;;;;;;;6.13;1.60;;;;;;;14.40;67.21;101760.00;7378624;19;24417;-48
2022/08/05 07:19:52;;;;;;;4.80;1.40;;;;;;;14.50;67.16;101757.59;7391836;19;24475;-48
2022/08/05 07:22:40;;;;;;;7.47;1.60;;;;;;;14.56;67.13;101752.59;7391235;19;24744;-49
2022/08/05 07:25:09;;;;;;;6.75;1.40;;;;;;;14.67;66.95;101756.53;7391495;19;24425;-50
2022/08/05 07:28:24;;;;;;;6.93;1.58;;;;;;;14.75;66.56;101763.97;7390415;19;24728;-52
2022/08/05 07:30:52;;;;;;;5.70;1.60;;;;;;;14.81;66.46;101762.56;7390162;19;25146;-48
2022/08/05 07:33:21;;;;;;;5.80;1.17;;;;;;;14.86;66.64;101764.31;7391313;19;24472;-51
2022/08/05 07:36:24;;;;;;;8.80;1.98;;;;;;;14.85;66.16;101762.69;7390209;19;24413;-49
2022/08/05 07:38:53;;;;;;;6.37;1.30;;;;;;;14.78;66.37;101760.47;7387828;19;24385;-51
2022/08/05 07:41:23;;;;;;;8.40;1.80;;;;;;;14.83;66.49;101760.25;7391633;19;24409;-52
2022/08/05 07:44:10;;;;;;;4.25;1.30;;;;;;;14.90;66.39;101763.28;7389751;19;24401;-51
2022/08/05 07:47:05;;;;;;;5.10;1.50;;;;;;;14.98;66.58;101770.72;7392015;19;24464;-49
2022/08/05 07:49:39;;;;;;;6.43;1.48;;;;;;;15.04;66.17;101777.66;7388002;19;24413;-46
2022/08/05 07:52:20;;;;;;;6.30;1.40;;;;;;;15.11;66.09;101783.47;7393146;19;24409;-52
2022/08/05 07:55:18;;;;;;;5.43;1.30;;;;;;;15.23;65.52;101786.22;7390575;19;24475;-49
2022/08/05 07:58:05;;;;;;;5.07;1.05;;;;;;;15.34;64.97;101785.75;7389928;19;24437;-54
2022/08/05 08:04:57;;;;;;;5.45;1.33;;;;;;;15.49;64.55;101785.06;7390750;19;24401;-49
2022/08/05 08:07:25;;;;;;;21.55;2.25;;;;;;;15.53;64.55;101784.00;7390650;19;24418;-53
2022/08/05 08:09:55;;;;;;;8.88;1.50;;;;;;;15.66;64.65;101793.13;7389395;19;24517;-53
2022/08/05 08:12:22;;;;;;;4.37;1.20;;;;;;;15.78;63.80;101798.66;7390284;19;24398;-50
2022/08/05 08:15:07;;;;;;;3.83;1.35;;;;;;;15.96;64.15;101797.22;7394531;19;24795;-49
2022/08/05 08:18:30;;;;;;;4.85;1.48;;;;;;;16.22;63.26;101800.34;7398588;19;24489;-53
2022/08/05 08:21:10;;;;;;;8.57;1.70;;;;;;;16.52;62.89;101794.31;7396035;19;24481;-52
2022/08/05 08:23:43;;;;;;;4.40;1.10;;;;;;;16.85;61.88;101804.00;7398635;19;24401;-54
2022/08/05 08:26:51;;;;;;;4.55;1.95;;;;;;;17.09;63.88;101802.97;7399131;19;20014;-54
2022/08/05 08:29:19;;;;;;;5.38;1.30;;;;;;;17.33;63.90;101799.13;7401893;19;20472;-55
2022/08/05 08:32:06;;;;;;;8.52;2.03;;;;;;;17.50;63.68;101805.09;7399744;19;20006;-49
2022/08/05 08:38:38;;;;;;;8.50;1.20;;;;;;;18.27;61.53;101801.53;7397720;19;20033;-49
2022/08/05 08:41:29;;;;;;;9.77;1.30;;;;;;;18.60;60.53;101810.97;7401952;19;20476;-48
2022/08/05 08:44:18;;;;;;;6.20;0.90;;;;;;;18.50;59.83;101819.22;7397618;19;20014;-48
2022/08/05 08:47:07;;;;;;;3.83;0.82;;;;;;;18.30;59.53;101815.59;7398232;19;20013;-50
2022/08/05 08:49:57;;;;;;;5.20;1.23;;;;;;;18.27;59.11;101821.94;7395887;19;20007;-49
2022/08/05 08:52:59;;;;;;;4.97;0.82;;;;;;;18.55;58.04;101821.69;7397920;19;20002;-47
2022/08/05 08:55:27;;;;;;;4.75;1.33;;;;;;;19.34;58.05;101820.59;7397024;19;20039;-49
2022/08/05 08:58:31;;;;;;;;;;;;;;;20.14;56.22;101819.28;7400910;19;20037;-49
2022/08/05 09:01:10;;;;;;;;;;;;;;;20.85;59.11;101820.81;7400856;19;19911;-49
2022/08/05 09:03:44;;;;;;;;;;;;;;;21.52;58.23;101826.97;7397464;19;20249;-49
2022/08/05 09:06:11;;;;;;;;;;;;;;;21.78;57.03;101828.72;7398602;19;19915;-52
2022/08/05 09:08:44;;;;;;;;;;;;;;;22.16;53.67;101825.25;7399175;19;19934;-50
2022/08/05 09:11:17;;;;;;;;;;;;;;;22.09;56.79;101827.25;7395051;19;19911;-51
2022/08/05 09:14:04;;;;;;;;;;;;;;;21.98;52.55;101821.56;7398299;19;19914;-48
2022/08/05 09:16:52;;;;;;;;;;;;;;;21.92;56.71;101823.19;7398290;19;19928;-47
2022/08/05 09:19:20;;;;;;;;;;;;;;;21.71;51.66;101823.06;7400496;19;19919;-48
2022/08/05 09:21:53;;;;;;;;;;;;;;;21.93;53.71;101824.78;7398537;19;19922;-54
2022/08/05 09:24:43;;;;;;;;;;;;;;;21.86;54.74;101827.56;7398658;19;19925;-47
2022/08/05 09:27:34;;;;;;;;;;;;;;;21.35;53.00;101824.03;7393172;19;19959;-50
2022/08/05 09:30:21;;;;;;;;;;;;;;;20.65;49.03;101833.53;7398153;19;19948;-53
2022/08/05 09:32:49;;;;;;;;;;;;;;;20.09;52.33;101836.50;7396702;19;19922;-47
2022/08/05 09:35:19;;;;;;;;;;;;;;;19.52;53.08;101837.75;7400759;19;19907;-47
2022/08/05 09:37:54;;;;;;;;;;;;;;;19.03;54.39;101840.59;7398506;19;19919;-47
2022/08/05 09:44:07;;;;;;;;;;;;;;;18.23;54.64;101849.09;7397573;19;19918;-49
2022/08/05 09:46:37;;;;;;;;;;;;;;;18.13;55.38;101847.72;7394550;19;19907;-50
2022/08/05 09:49:55;;;;;;;;;;;;;;;19.15;54.18;101843.16;7396791;19;19923;-52
2022/08/05 09:52:51;;;;;;;;;;;;;;;20.19;53.99;101846.25;7397819;19;19911;-48
2022/08/05 09:55:20;;;;;;;;;;;;;;;21.10;47.67;101838.75;7399424;19;19910;-48
2022/08/05 09:58:10;;;;;;;;;;;;;;;21.66;47.84;101840.31;7396704;19;19943;-55
2022/08/05 10:00:59;;;;;;;;;;;;;;;21.66;51.16;101843.94;7396288;19;19923;-49
2022/08/05 10:03:28;;;;;;;;;;;;;;;21.33;52.13;101848.97;7396114;19;20311;-47
2022/08/05 10:06:18;;;;;;;;;;;;;;;20.93;51.60;101842.22;7399776;19;19911;-50
2022/08/05 10:09:29;;;;;;;;;;;;;;;20.43;51.73;101848.56;7397717;19;19914;-51
2022/08/05 10:12:11;;;;;;;;;;;;;;;19.79;48.44;101850.56;7395537;19;19910;-46
2022/08/05 10:18:11;;;;;;;;;;;;;;;18.80;50.18;101860.22;7396211;19;19918;-47
2022/08/05 10:20:44;;;;;;;;;;;;;;;18.58;50.82;101858.25;7399081;19;19919;-49
2022/08/05 10:26:26;;;;;;;4.15;0.70;;;;;;;18.41;52.42;101872.69;7398394;19;19974;-53
2022/08/05 10:29:21;;;;;;;1.20;0.52;;;;;;;18.27;51.60;101873.22;7391841;19;20031;-47
2022/08/05 10:32:08;;;;;;;3.92;1.60;;;;;;;18.44;48.12;101876.75;7389379;19;24425;-50
2022/08/05 10:34:57;;;;;;;2.17;0.80;;;;;;;18.35;48.11;101879.78;7389207;19;24455;-54
2022/08/05 10:37:30;;;;;;;3.80;1.83;;;;;;;18.22;48.90;101895.13;7390242;19;24463;-49
2022/08/05 10:40:42;;;;;;;4.33;1.40;;;;;;;18.09;52.77;101904.88;7392214;19;24421;-48
2022/08/05 10:43:24;;;;;;;6.20;1.42;;;;;;;17.98;55.38;101903.81;7389326;19;24429;-57
2022/08/05 10:46:07;;;;;;;6.53;1.13;;;;;;;17.82;56.87;101911.50;7386976;19;24409;-52
2022/08/05 10:48:38;;;;;;;5.28;1.83;;;;;;;17.67;58.59;101926.31;7390971;19;24413;-52
2022/08/05 10:51:24;;;;;;;5.15;1.60;;;;;;;17.66;59.22;101928.31;7387858;19;24421;-52
2022/08/05 10:54:01;;;;;;;6.68;2.47;;;;;;;17.67;58.72;101921.53;7393798;19;24752;-50
2022/08/05 10:56:56;;;;;;;4.57;1.77;;;;;;;17.70;59.68;101931.22;7388526;19;24417;-52
2022/08/05 10:59:44;;;;;;;7.82;1.40;;;;;;;17.74;59.04;101926.50;7392523;19;24417;-52
2022/08/05 11:02:32;;;;;;;4.00;1.48;;;;;;;17.89;59.65;101928.44;7390122;19;24997;-49
2022/08/05 11:05:20;;;;;;;5.53;2.08;;;;;;;18.07;58.09;101932.44;7389861;19;24428;-51
2022/08/05 11:08:03;;;;;;;3.50;1.38;;;;;;;18.22;56.19;101921.16;7392846;19;24413;-51
2022/08/05 11:10:50;;;;;;;3.08;1.60;;;;;;;18.36;55.88;101931.88;7389053;19;24421;-55
2022/08/05 11:13:39;;;;;;;2.10;1.20;;;;;;;18.42;54.16;101922.00;7390341;19;24397;-56
2022/08/05 11:16:24;;;;;;;3.23;1.60;;;;;;;18.52;55.33;101924.22;7390441;19;24418;-51
2022/08/05 11:19:27;;;;;;;2.42;1.40;;;;;;;18.90;53.60;101925.34;7391442;19;24469;-54
2022/08/05 11:22:40;;;;;;;2.83;1.42;;;;;;;19.22;52.26;101923.91;7389882;19;24417;-50
2022/08/05 11:25:37;;;;;;;2.50;1.17;;;;;;;19.40;49.96;101927.84;7391609;19;24484;-53
2022/08/05 11:28:46;;;;;;;3.50;1.50;;;;;;;19.47;47.86;101922.34;7386630;19;24409;-49
2022/08/05 11:31:13;;;;;;;3.67;1.67;;;;;;;19.59;48.63;101922.09;7386339;19;24409;-51
2022/08/05 11:34:05;;;;;;;2.97;1.58;;;;;;;19.64;47.61;101913.38;7389682;19;24496;-50
2022/08/05 11:36:46;;;;;;;3.65;1.85;;;;;;;19.71;48.60;101919.09;7388729;19;24425;-50
2022/08/05 11:39:49;;;;;;;3.80;2.25;;;;;;;19.85;47.61;101919.31;7390319;19;24425;-51
2022/08/05 11:42:27;;;;;;;3.13;1.55;;;;;;;19.99;47.17;101925.13;7391247;19;24421;-51
2022/08/05 11:45:03;;;;;;;3.55;1.60;;;;;;;20.19;46.17;101916.53;7389667;19;24401;-49
2022/08/05 11:47:34;;;;;;;3.17;1.60;;;;;;;20.18;45.06;101917.72;7387721;19;24736;-53
2022/08/05 11:50:37;;;;;;;3.83;2.00;;;;;;;20.17;44.79;101913.31;7389859;19;24422;-50
2022/08/05 11:53:04;;;;;;;6.45;2.25;;;;;;;20.29;45.58;101918.69;7392055;19;24452;-56
2022/08/05 11:55:36;;;;;;;2.70;1.30;;;;;;;20.33;45.48;101916.75;7373807;19;24429;-54
2022/08/05 11:58:03;;;;;;;2.90;1.80;;;;;;;20.41;45.77;101921.28;7397666;19;24472;-54
2022/08/05 12:00:39;;;;;;;3.67;2.00;;;;;;;20.42;44.35;101914.44;7394034;19;24409;-53
2022/08/05 12:03:19;;;;;;;5.07;1.98;;;;;;;20.22;43.55;101912.97;7398655;19;24429;-49
2022/08/05 12:06:03;;;;;;;3.25;2.10;;;;;;;20.33;44.63;101917.53;7391085;19;24417;-51
2022/08/05 12:08:56;;;;;;;3.00;1.63;;;;;;;20.38;43.91;101920.03;7390219;19;24484;-51
2022/08/05 12:11:27;;;;;;;5.57;2.67;;;;;;;20.58;43.10;101912.22;7390588;19;24728;-50
2022/08/05 12:14:08;;;;;;;;;;;;;;;20.68;42.68;101917.16;7398810;19;20025;-51
2022/08/05 12:16:37;;;;;;;;;;;;;;;20.81;42.51;101914.88;7398216;19;19915;-47
2022/08/05 12:19:07;;;;;;;3.58;1.90;;;;;;;20.73;44.52;101919.59;7395438;19;19923;-47
2022/08/05 12:21:40;;;;;;;;;;;;;;;20.53;43.30;101926.63;7398187;19;20074;-50
2022/08/05 12:24:19;;;;;;;8.18;2.35;;;;;;;20.27;44.89;101929.53;7396032;19;19911;-48
2022/08/05 12:26:48;;;;;;;;;;;;;;;19.91;43.87;101923.41;7397273;19;20044;-49
2022/08/05 12:29:18;;;;;;;3.85;2.05;;;;;;;19.74;45.42;101929.59;7396835;19;19918;-48
2022/08/05 12:31:54;;;;;;;6.57;2.38;;;;;;;19.61;45.26;101927.38;7396089;19;20020;-48
2022/08/05 12:34:27;;;;;;;5.05;2.38;;;;;;;19.64;45.23;101929.44;7397475;19;20014;-45
2022/08/05 12:36:57;;;;;;;5.10;2.45;;;;;;;19.70;45.58;101934.31;7399513;19;20016;-46
2022/08/05 12:42:38;;;;;;;6.57;3.75;;;;;;;20.00;45.68;101937.19;7397782;19;20411;-42
2022/08/05 12:45:26;;;;;;;4.32;2.65;;;;;;;20.08;45.59;101938.06;7401094;19;20017;-48
2022/08/05 12:48:26;;;;;;;3.80;2.60;;;;;;;20.16;44.74;101939.78;7400031;19;20006;-45
2022/08/05 12:51:19;;;;;;;;;;;;;;;20.21;45.77;101939.47;7400517;19;20011;-46
2022/08/05 12:54:06;;;;;;;;;;;;;;;20.29;45.49;101949.63;7399386;19;20318;-50
2022/08/05 12:56:53;;;;;;;5.78;2.42;;;;;;;20.37;46.10;101956.97;7400806;19;19938;-47
2022/08/05 12:59:45;;;;;;;3.80;2.22;;;;;;;20.31;45.09;101953.69;7397979;19;20010;-50
2022/08/05 13:02:34;;;;;;;10.38;2.67;;;;;;;20.36;45.23;101955.38;7394855;19;20073;-49
2022/08/05 13:05:05;;;;;;;4.30;2.17;;;;;;;20.33;44.45;101968.16;7396954;19;20378;-47
2022/08/05 13:07:33;;;;;;;3.15;2.10;;;;;;;20.27;44.38;101957.66;7398471;19;20014;-48
2022/08/05 13:10:42;;;;;;;2.60;1.73;;;;;;;20.11;44.48;101954.19;7398137;19;20006;-52
2022/08/05 13:17:06;;;;;;;;;;;;;;;19.88;43.09;101966.31;7397439;19;20006;-49
2022/08/05 13:19:33;;;;;;;4.85;1.60;;;;;;;20.11;44.39;101959.81;7403328;19;20325;-49
2022/08/05 13:22:45;;;;;;;5.32;3.47;;;;;;;20.46;43.14;101951.88;7397256;19;20014;-49
2022/08/05 13:25:16;;;;;;;5.55;2.05;;;;;;;20.69;43.94;101952.53;7399376;19;20010;-49
2022/08/05 13:27:50;;;;;;;4.55;1.60;;;;;;;20.58;43.63;101948.78;7395901;19;20037;-48
2022/08/05 13:30:21;;;;;;;;;;;;;;;20.50;43.56;101961.16;7401044;19;20070;-53
2022/08/05 13:33:22;;;;;;;3.85;2.30;;;;;;;20.74;43.64;101948.56;7397777;19;19926;-52
2022/08/05 13:36:11;;;;;;;;;;;;;;;21.12;42.71;101954.66;7400298;19;20655;-50
2022/08/05 13:38:40;;;;;;;3.28;1.60;;;;;;;21.42;43.02;101951.66;7403181;19;19933;-48
2022/08/05 13:41:39;;;;;;;7.53;2.70;;;;;;;21.53;40.36;101952.56;7401548;19;20013;-47
2022/08/05 13:44:07;;;;;;;3.72;1.98;;;;;;;21.79;41.98;101960.00;7393347;19;20022;-53
2022/08/05 13:46:36;;;;;;;5.32;1.52;;;;;;;21.98;41.69;101956.94;7395972;19;20019;-50
2022/08/05 13:49:24;;;;;;;3.50;2.08;;;;;;;22.13;41.51;101949.38;7394820;19;20035;-51
2022/08/05 13:52:17;;;;;;;;;;;;;;;22.36;41.11;101955.53;7399843;19;20010;-49
2022/08/05 13:58:07;;;;;;;;;;;;;;;22.47;40.16;101961.22;7393617;19;19926;-49
2022/08/05 14:00:37;;;;;;;;;;;;;;;22.42;39.65;101954.72;7397145;19;19942;-49
2022/08/05 14:03:07;;;;;;;;;;;;;;;22.29;40.38;101950.66;7396515;19;19930;-48
2022/08/05 14:05:34;;;;;;;;;;;;;;;22.03;40.92;101964.25;7396514;19;19914;-52
2022/08/05 14:08:22;;;;;;;;;;;;;;;22.32;40.10;101965.97;7395090;19;19915;-50
2022/08/05 14:11:09;;;;;;;;;;;;;;;22.39;38.32;101972.47;7386665;19;20359;-49
2022/08/05 14:14:00;;;;;;;;;;;;;;;22.52;39.04;101974.94;7390187;19;19947;-49
2022/08/05 14:16:30;;;;;;;;;;;;;;;22.42;39.88;101971.66;7391622;19;19928;-50
2022/08/05 14:19:39;;;;;;;2.85;1.10;;;;;;;22.30;40.01;101974.84;7393117;19;19945;-50
2022/08/05 14:22:22;;;;;;;;;;;;;;;21.90;40.89;101975.00;7397496;19;20026;-48
2022/08/05 14:24:56;;;;;;;3.25;2.05;;;;;;;21.78;41.60;101980.94;7397936;19;19918;-48
2022/08/05 14:27:24;;;;;;;;;;;;;;;21.50;39.48;101980.75;7394263;19;20016;-47
2022/08/05 14:29:54;;;;;;;;;;;;;;;21.40;40.29;101981.44;7395943;19;19975;-50
2022/08/05 14:32:22;;;;;;;;;;;;;;;21.35;41.88;101988.25;7392175;19;19910;-48
2022/08/05 14:34:53;;;;;;;;;;;;;;;21.35;40.63;101984.63;7394802;19;19919;-48
2022/08/05 14:37:23;;;;;;;;;;;;;;;21.45;40.23;101990.34;7394021;19;20364;-47
2022/08/05 14:40:17;;;;;;;;;;;;;;;21.51;41.71;101993.63;7393996;19;20015;-48
2022/08/05 14:42:44;;;;;;;;;;;;;;;21.52;41.69;101987.59;7396805;19;19910;-53
2022/08/05 14:45:15;;;;;;;;;;;;;;;21.45;41.77;101989.53;7396660;19;19930;-52
2022/08/05 14:47:45;;;;;;;;;;;;;;;21.28;41.89;101984.56;7394992;19;19914;-55
2022/08/05 14:50:32;;;;;;;;;;;;;;;21.52;42.25;101986.78;7396836;19;19918;-51
2022/08/05 14:56:07;;;;;;;;;;;;;;;22.56;41.03;101987.06;7391439;19;19974;-48
2022/08/05 14:58:37;;;;;;;;;;;;;;;22.90;41.01;101980.75;7396663;19;19919;-50
2022/08/05 15:01:13;;;;;;;;;;;;;;;23.16;38.18;101995.75;7396494;19;20241;-49
2022/08/05 15:03:42;;;;;;;;;;;;;;;23.36;38.91;101985.66;7393988;19;19914;-55
2022/08/05 15:06:11;;;;;;;;;;;;;;;23.34;37.52;101988.09;7396085;19;19911;-49
2022/08/05 15:08:42;;;;;;;;;;;;;;;23.27;38.17;101986.03;7394526;19;19915;-51
2022/08/05 15:11:49;;;;;;;;;;;;;;;23.36;40.60;101994.13;7397443;19;19949;-49
2022/08/05 15:14:37;;;;;;;;;;;;;;;23.62;36.60;101985.28;7395916;19;19986;-48
2022/08/05 15:17:14;;;;;;;;;;;;;;;23.89;38.95;101994.16;7394744;19;19949;-47
2022/08/05 15:20:02;;;;;;;;;;;;;;;24.15;38.18;101990.91;7397598;19;19960;-49
2022/08/05 15:22:55;;;;;;;;;;;;;;;24.33;39.36;101990.88;7393876;19;19923;-49
2022/08/05 15:25:23;;;;;;;;;;;;;;;24.57;37.44;101982.25;7390260;19;20257;-47
2022/08/05 15:28:10;;;;;;;;;;;;;;;24.65;37.22;101986.66;7395225;19;19926;-49
2022/08/05 15:30:41;;;;;;;;;;;;;;;24.66;36.37;101991.13;7393977;19;20316;-48
2022/08/05 15:33:09;;;;;;;;;;;;;;;24.80;36.93;101995.94;7396616;19;19915;-51
2022/08/05 15:35:37;;;;;;;;;;;;;;;24.78;38.89;101987.03;7390181;19;19914;-52
2022/08/05 15:38:11;;;;;;;;;;;;;;;24.74;37.45;101991.88;7394164;19;20358;-51
2022/08/05 15:40:59;;;;;;;;;;;;;;;24.72;37.36;101983.81;7394467;19;19915;-49
2022/08/05 15:43:52;;;;;;;;;;;;;;;24.41;41.17;101998.13;7392071;19;20121;-48
2022/08/05 15:46:21;;;;;;;;;;;;;;;24.13;41.88;101991.31;7389017;19;19918;-47
2022/08/05 15:48:51;;;;;;;;;;;;;;;23.84;41.69;101991.72;7394130;19;19915;-48
2022/08/05 15:51:32;;;;;;;;;;;;;;;23.55;41.36;102008.72;7390174;19;19918;-50
2022/08/05 15:54:19;;;;;;;;;;;;;;;23.37;43.07;102009.94;7393865;19;19919;-47
2022/08/05 15:57:02;;;;;;;;;;;;;;;23.22;41.72;102006.22;7387287;19;19914;-51
2022/08/05 15:59:34;;;;;;;;;;;;;;;23.43;39.52;101991.38;7394051;19;19974;-49
2022/08/05 16:02:01;;;;;;;;;;;;;;;23.97;41.93;101999.41;7390876;19;19929;-49
2022/08/05 16:04:35;;;;;;;;;;;;;;;24.53;40.30;102009.78;7394665;19;19929;-49
2022/08/05 16:07:05;;;;;;;;;;;;;;;24.93;38.96;101999.09;7390105;19;20333;-50
2022/08/05 16:09:44;;;;;;;;;;;;;;;25.20;36.43;102008.66;7394352;19;19925;-53
2022/08/05 16:12:11;;;;;;;;;;;;;;;25.41;38.63;102014.19;7392198;19;19919;-53